Time,TemperatureF,DewpointF,PressureIn,WindDirection,WindDirectionDegrees,WindSpeedMPH,WindSpeedGustMPH,Humidity,HourlyPrecipIn,Conditions,Clouds,dailyrainin,SolarRadiationWatts/m^2,SoftwareType,DateUTC
2013-08-24 00:22:00,58.0,35.0,-100.00,WNW,297,2.0,5.0,42,0.00,,,0.00,0.000000,,2013-08-24 07:22:00,
2013-08-24 00:32:00,58.0,35.0,-100.00,WNW,297,2.0,5.0,42,0.00,,,0.00,0.000000,,2013-08-24 07:32:00,
2013-08-24 00:43:00,58.0,35.0,-100.00,WNW,297,2.0,5.0,42,0.00,,,0.00,0.000000,,2013-08-24 07:43:00,
2013-08-24 00:53:00,58.0,35.0,-100.00,WNW,297,2.0,5.0,42,0.00,,,0.00,0.000000,,2013-08-24 07:53:00,
2013-08-24 01:22:00,57.0,35.0,-100.00,SW,229,1.0,5.0,44,0.00,,,0.00,0.000000,,2013-08-24 08:22:00,
2013-08-24 01:32:00,57.0,35.0,-100.00,SW,229,1.0,5.0,44,0.00,,,0.00,0.000000,,2013-08-24 08:32:00,
2013-08-24 01:42:00,57.0,35.0,-100.00,SW,229,1.0,5.0,44,0.00,,,0.00,0.000000,,2013-08-24 08:42:00,
2013-08-24 01:52:00,57.0,35.0,-100.00,SW,229,1.0,5.0,44,0.00,,,0.00,0.000000,,2013-08-24 08:52:00,
2013-08-24 02:22:00,57.0,36.0,-100.00,NNE,23,3.0,4.0,45,0.00,,,0.00,0.000000,,2013-08-24 09:22:00,
2013-08-24 02:33:00,57.0,36.0,-100.00,NNE,23,3.0,4.0,45,0.00,,,0.00,0.000000,,2013-08-24 09:33:00,
2013-08-24 02:44:00,57.0,36.0,-100.00,NNE,23,3.0,4.0,45,0.00,,,0.00,0.000000,,2013-08-24 09:44:00,
2013-08-24 02:53:00,57.0,36.0,-100.00,NNE,23,3.0,4.0,45,0.00,,,0.00,0.000000,,2013-08-24 09:53:00,
2013-08-24 03:23:00,56.0,35.0,-100.00,NNE,14,1.0,5.0,45,0.00,,,0.00,0.000000,,2013-08-24 10:23:00,
2013-08-24 03:32:00,56.0,35.0,-100.00,NNE,14,1.0,5.0,45,0.00,,,0.00,0.000000,,2013-08-24 10:32:00,
2013-08-24 03:42:00,56.0,35.0,-100.00,NNE,14,1.0,5.0,45,0.00,,,0.00,0.000000,,2013-08-24 10:42:00,
2013-08-24 03:52:00,56.0,35.0,-100.00,NNE,14,1.0,5.0,45,0.00,,,0.00,0.000000,,2013-08-24 10:52:00,
2013-08-24 04:22:00,57.0,36.0,-100.00,NNE,19,2.0,5.0,45,0.00,,,0.00,0.000000,,2013-08-24 11:22:00,
2013-08-24 04:33:00,57.0,36.0,-100.00,NNE,19,2.0,5.0,45,0.00,,,0.00,0.000000,,2013-08-24 11:33:00,
2013-08-24 04:42:00,57.0,36.0,-100.00,NNE,19,2.0,5.0,45,0.00,,,0.00,0.000000,,2013-08-24 11:42:00,
2013-08-24 04:52:00,57.0,36.0,-100.00,NNE,19,2.0,5.0,45,0.00,,,0.00,0.000000,,2013-08-24 11:52:00,
2013-08-24 05:21:00,55.0,35.0,-100.00,West,270,2.0,5.0,46,0.00,,,0.00,0.000000,,2013-08-24 12:21:00,
2013-08-24 05:32:00,55.0,35.0,-100.00,West,270,2.0,5.0,46,0.00,,,0.00,0.000000,,2013-08-24 12:32:00,
2013-08-24 05:42:00,55.0,35.0,-100.00,West,270,2.0,5.0,46,0.00,,,0.00,0.000000,,2013-08-24 12:42:00,
2013-08-24 05:52:00,55.0,35.0,-100.00,West,270,2.0,5.0,46,0.00,,,0.00,0.000000,,2013-08-24 12:52:00,
2013-08-24 06:22:00,54.0,34.0,-100.00,NE,54,1.0,2.0,47,0.00,,,0.00,0.000000,,2013-08-24 13:22:00,
2013-08-24 06:32:00,54.0,34.0,-100.00,NE,54,1.0,2.0,47,0.00,,,0.00,0.000000,,2013-08-24 13:32:00,
2013-08-24 06:42:00,54.0,34.0,-100.00,NE,54,1.0,2.0,47,0.00,,,0.00,0.000000,,2013-08-24 13:42:00,
2013-08-24 06:52:00,54.0,34.0,-100.00,NE,54,1.0,2.0,47,0.00,,,0.00,0.000000,,2013-08-24 13:52:00,
2013-08-24 07:22:00,55.0,35.0,-100.00,East,84,2.0,6.0,47,0.00,,,0.00,17.000000,,2013-08-24 14:22:00,
2013-08-24 07:32:00,55.0,35.0,-100.00,East,84,2.0,6.0,47,0.00,,,0.00,17.000000,,2013-08-24 14:32:00,
2013-08-24 07:42:00,55.0,35.0,-100.00,East,84,2.0,6.0,47,0.00,,,0.00,17.000000,,2013-08-24 14:42:00,
2013-08-24 07:52:00,55.0,35.0,-100.00,East,84,2.0,6.0,47,0.00,,,0.00,17.000000,,2013-08-24 14:52:00,
2013-08-24 09:42:00,71.0,35.0,-100.00,South,187,3.0,5.0,27,-99.99,,,0.00,426.000000,,2013-08-24 16:42:00,
2013-08-24 09:53:00,71.0,35.0,-100.00,South,187,3.0,5.0,27,-99.99,,,0.00,426.000000,,2013-08-24 16:53:00,
2013-08-24 10:42:00,76.0,32.0,-100.00,SSE,168,4.0,11.0,20,0.00,,,0.00,669.000000,,2013-08-24 17:42:00,
2013-08-24 10:52:00,76.0,32.0,-100.00,SSE,168,4.0,11.0,20,0.00,,,0.00,669.000000,,2013-08-24 17:52:00,
2013-08-24 11:42:00,78.0,31.0,-100.00,WNW,286,4.0,10.0,18,0.00,,,0.00,879.000000,,2013-08-24 18:42:00,
2013-08-24 11:53:00,78.0,31.0,-100.00,WNW,286,4.0,10.0,18,0.00,,,0.00,879.000000,,2013-08-24 18:53:00,
2013-08-24 12:21:00,81.0,33.0,-100.00,SSW,193,4.0,13.0,18,0.00,,,0.00,1026.000000,,2013-08-24 19:21:00,
2013-08-24 12:32:00,81.0,33.0,-100.00,SSW,193,4.0,13.0,18,0.00,,,0.00,1026.000000,,2013-08-24 19:32:00,
2013-08-24 12:42:00,81.0,33.0,-100.00,SSW,193,4.0,13.0,18,0.00,,,0.00,1026.000000,,2013-08-24 19:42:00,
2013-08-24 12:52:00,81.0,33.0,-100.00,SSW,193,4.0,13.0,18,0.00,,,0.00,1026.000000,,2013-08-24 19:52:00,
2013-08-24 13:22:00,83.0,29.0,-100.00,WNW,302,5.0,16.0,14,0.00,,,0.00,1105.000000,,2013-08-24 20:22:00,
2013-08-24 13:32:00,83.0,29.0,-100.00,WNW,302,5.0,16.0,14,0.00,,,0.00,1105.000000,,2013-08-24 20:32:00,
2013-08-24 13:42:00,83.0,29.0,-100.00,WNW,302,5.0,16.0,14,0.00,,,0.00,1105.000000,,2013-08-24 20:42:00,
2013-08-24 13:52:00,83.0,29.0,-100.00,WNW,302,5.0,16.0,14,0.00,,,0.00,1105.000000,,2013-08-24 20:52:00,
2013-08-24 14:22:00,82.0,30.0,-100.00,South,173,6.0,14.0,15,0.00,,,0.00,1115.000000,,2013-08-24 21:22:00,
2013-08-24 14:34:00,82.0,30.0,-100.00,South,173,6.0,14.0,15,0.00,,,0.00,1115.000000,,2013-08-24 21:34:00,
2013-08-24 14:43:00,82.0,30.0,-100.00,South,173,6.0,14.0,15,0.00,,,0.00,1115.000000,,2013-08-24 21:43:00,
2013-08-24 14:54:00,82.0,30.0,-100.00,South,173,6.0,14.0,15,0.00,,,0.00,1115.000000,,2013-08-24 21:54:00,
2013-08-24 15:23:00,82.0,28.0,-100.00,SW,227,5.0,16.0,14,0.00,,,0.00,1049.000000,,2013-08-24 22:23:00,
2013-08-24 15:33:00,82.0,28.0,-100.00,SW,227,5.0,16.0,14,0.00,,,0.00,1049.000000,,2013-08-24 22:33:00,
2013-08-24 15:42:00,82.0,28.0,-100.00,SW,227,5.0,16.0,14,0.00,,,0.00,1049.000000,,2013-08-24 22:42:00,
2013-08-24 15:53:00,82.0,28.0,-100.00,SW,227,5.0,16.0,14,0.00,,,0.00,1049.000000,,2013-08-24 22:53:00,
2013-08-24 16:22:00,83.0,29.0,-100.00,West,271,4.0,15.0,14,0.00,,,0.00,914.000000,,2013-08-24 23:22:00,
2013-08-24 16:34:00,83.0,29.0,-100.00,West,271,4.0,15.0,14,0.00,,,0.00,914.000000,,2013-08-24 23:34:00,
2013-08-24 16:42:00,83.0,29.0,-100.00,West,271,4.0,15.0,14,0.00,,,0.00,914.000000,,2013-08-24 23:42:00,
2013-08-24 16:53:00,83.0,29.0,-100.00,West,271,4.0,15.0,14,0.00,,,0.00,914.000000,,2013-08-24 23:53:00,
2013-08-24 17:22:00,80.0,27.0,-100.00,South,185,4.0,17.0,14,0.00,,,0.00,716.000000,,2013-08-25 00:22:00,
2013-08-24 17:32:00,80.0,27.0,-100.00,South,185,4.0,17.0,14,0.00,,,0.00,716.000000,,2013-08-25 00:32:00,
2013-08-24 17:42:00,80.0,27.0,-100.00,South,185,4.0,17.0,14,0.00,,,0.00,716.000000,,2013-08-25 00:42:00,
2013-08-24 17:52:00,80.0,27.0,-100.00,South,185,4.0,17.0,14,0.00,,,0.00,716.000000,,2013-08-25 00:52:00,
2013-08-24 18:22:00,79.0,32.0,-100.00,North,1,4.0,14.0,18,0.00,,,0.00,478.000000,,2013-08-25 01:22:00,
2013-08-24 18:32:00,79.0,32.0,-100.00,North,1,4.0,14.0,18,0.00,,,0.00,478.000000,,2013-08-25 01:32:00,
2013-08-24 18:42:00,79.0,32.0,-100.00,North,1,4.0,14.0,18,0.00,,,0.00,478.000000,,2013-08-25 01:42:00,
2013-08-24 18:52:00,79.0,32.0,-100.00,North,1,4.0,14.0,18,0.00,,,0.00,478.000000,,2013-08-25 01:52:00,
2013-08-24 19:22:00,70.0,34.0,-100.00,West,259,2.0,17.0,26,0.00,,,0.00,122.000000,,2013-08-25 02:22:00,
2013-08-24 19:33:00,70.0,34.0,-100.00,West,259,2.0,17.0,26,0.00,,,0.00,122.000000,,2013-08-25 02:33:00,
2013-08-24 19:42:00,70.0,34.0,-100.00,West,259,2.0,17.0,26,0.00,,,0.00,122.000000,,2013-08-25 02:42:00,
2013-08-24 19:52:00,70.0,34.0,-100.00,West,259,2.0,17.0,26,0.00,,,0.00,122.000000,,2013-08-25 02:52:00,
2013-08-24 20:23:00,66.0,35.0,-100.00,ESE,112,1.0,4.0,32,0.00,,,0.00,9.000000,,2013-08-25 03:23:00,
2013-08-24 20:34:00,66.0,35.0,-100.00,ESE,112,1.0,4.0,32,0.00,,,0.00,9.000000,,2013-08-25 03:34:00,
2013-08-24 20:44:00,66.0,35.0,-100.00,ESE,112,1.0,4.0,32,0.00,,,0.00,9.000000,,2013-08-25 03:44:00,
2013-08-24 20:54:00,66.0,35.0,-100.00,ESE,112,1.0,4.0,32,0.00,,,0.00,9.000000,,2013-08-25 03:54:00,
2013-08-24 21:25:00,64.0,37.0,-100.00,NNE,17,3.0,6.0,36,0.00,,,0.00,0.000000,,2013-08-25 04:25:00,
2013-08-24 21:33:00,64.0,37.0,-100.00,NNE,17,3.0,6.0,36,0.00,,,0.00,0.000000,,2013-08-25 04:33:00,
2013-08-24 21:43:00,64.0,37.0,-100.00,NNE,17,3.0,6.0,36,0.00,,,0.00,0.000000,,2013-08-25 04:43:00,
2013-08-24 21:54:00,64.0,37.0,-100.00,NNE,17,3.0,6.0,36,0.00,,,0.00,0.000000,,2013-08-25 04:54:00,
2013-08-24 22:22:00,62.0,37.0,-100.00,NE,47,3.0,6.0,39,0.00,,,0.00,0.000000,,2013-08-25 05:22:00,
2013-08-24 22:34:00,62.0,37.0,-100.00,NE,47,3.0,6.0,39,0.00,,,0.00,0.000000,,2013-08-25 05:34:00,
2013-08-24 22:42:00,62.0,37.0,-100.00,NE,47,3.0,6.0,39,0.00,,,0.00,0.000000,,2013-08-25 05:42:00,
2013-08-24 22:52:00,62.0,37.0,-100.00,NE,47,3.0,6.0,39,0.00,,,0.00,0.000000,,2013-08-25 05:52:00,
2013-08-24 23:22:00,61.0,37.0,-100.00,NNE,15,2.0,7.0,41,0.00,,,0.00,0.000000,,2013-08-25 06:22:00,
2013-08-24 23:32:00,61.0,37.0,-100.00,NNE,15,2.0,7.0,41,0.00,,,0.00,0.000000,,2013-08-25 06:32:00,
2013-08-24 23:43:00,61.0,37.0,-100.00,NNE,15,2.0,7.0,41,0.00,,,0.00,0.000000,,2013-08-25 06:43:00,
2013-08-24 23:52:00,61.0,37.0,-100.00,NNE,15,2.0,7.0,41,0.00,,,0.00,0.000000,,2013-08-25 06:52:00,